sensor_id;sensor_type;location;lat;lon;timestamp;temperature;humidity
11762;DHT22;5938;47.098;15.474;2023-11-22T00:02:56;0.90;99.90
11762;DHT22;5938;47.098;15.474;2023-11-22T00:07:00;0.50;99.90
11762;DHT22;5938;47.098;15.474;2023-11-22T00:11:03;0.70;99.90
11762;DHT22;5938;47.098;15.474;2023-11-22T00:15:09;0.70;99.90
11762;DHT22;5938;47.098;15.474;2023-11-22T00:19:14;0.70;99.90
11762;DHT22;5938;47.098;15.474;2023-11-22T00:23:20;0.70;99.90
11762;DHT22;5938;47.098;15.474;2023-11-22T00:27:23;0.60;99.90
11762;DHT22;5938;47.098;15.474;2023-11-22T00:31:28;0.20;99.90
11762;DHT22;5938;47.098;15.474;2023-11-22T00:35:31;0.60;99.90
11762;DHT22;5938;47.098;15.474;2023-11-22T00:39:35;0.50;99.90
11762;DHT22;5938;47.098;15.474;2023-11-22T00:43:39;0.50;99.90
11762;DHT22;5938;47.098;15.474;2023-11-22T00:47:44;0.50;99.90
11762;DHT22;5938;47.098;15.474;2023-11-22T00:51:47;0.50;99.90
11762;DHT22;5938;47.098;15.474;2023-11-22T00:55:50;0.50;99.90
11762;DHT22;5938;47.098;15.474;2023-11-22T00:59:55;0.50;99.90
11762;DHT22;5938;47.098;15.474;2023-11-22T01:03:59;0.30;99.90
11762;DHT22;5938;47.098;15.474;2023-11-22T01:08:03;0.40;99.90
11762;DHT22;5938;47.098;15.474;2023-11-22T01:12:07;-0.20;99.90
11762;DHT22;5938;47.098;15.474;2023-11-22T01:16:11;0.10;99.90
11762;DHT22;5938;47.098;15.474;2023-11-22T01:20:16;0.20;99.90
11762;DHT22;5938;47.098;15.474;2023-11-22T01:24:20;0.10;99.90
11762;DHT22;5938;47.098;15.474;2023-11-22T01:28:24;0.00;99.90
11762;DHT22;5938;47.098;15.474;2023-11-22T01:32:29;0.00;99.90
11762;DHT22;5938;47.098;15.474;2023-11-22T01:36:33;0.00;99.90
11762;DHT22;5938;47.098;15.474;2023-11-22T01:40:43;-0.10;99.90
11762;DHT22;5938;47.098;15.474;2023-11-22T01:44:47;-0.10;99.90
11762;DHT22;5938;47.098;15.474;2023-11-22T01:48:52;0.00;99.90
11762;DHT22;5938;47.098;15.474;2023-11-22T01:52:56;-0.20;99.90
11762;DHT22;5938;47.098;15.474;2023-11-22T01:57:02;-0.10;99.90
11762;DHT22;5938;47.098;15.474;2023-11-22T02:01:09;-0.30;99.90
11762;DHT22;5938;47.098;15.474;2023-11-22T02:05:14;-0.70;99.90
11762;DHT22;5938;47.098;15.474;2023-11-22T02:09:19;-0.20;99.90
11762;DHT22;5938;47.098;15.474;2023-11-22T02:13:22;-0.20;99.90
11762;DHT22;5938;47.098;15.474;2023-11-22T02:17:25;-0.30;99.90
11762;DHT22;5938;47.098;15.474;2023-11-22T02:21:31;-0.40;99.90
11762;DHT22;5938;47.098;15.474;2023-11-22T02:25:35;-0.30;99.90
11762;DHT22;5938;47.098;15.474;2023-11-22T02:29:39;-0.40;99.90
11762;DHT22;5938;47.098;15.474;2023-11-22T02:33:42;-0.30;99.90
11762;DHT22;5938;47.098;15.474;2023-11-22T02:37:46;-0.20;99.90
11762;DHT22;5938;47.098;15.474;2023-11-22T02:41:52;-0.30;99.90
11762;DHT22;5938;47.098;15.474;2023-11-22T02:45:55;-0.30;99.90
11762;DHT22;5938;47.098;15.474;2023-11-22T02:49:59;-0.40;99.90
11762;DHT22;5938;47.098;15.474;2023-11-22T02:54:02;-0.30;99.90
11762;DHT22;5938;47.098;15.474;2023-11-22T02:58:08;-0.20;99.90
11762;DHT22;5938;47.098;15.474;2023-11-22T03:02:11;0.00;99.90
11762;DHT22;5938;47.098;15.474;2023-11-22T03:06:15;-0.40;99.90
11762;DHT22;5938;47.098;15.474;2023-11-22T03:10:19;-0.30;99.90
11762;DHT22;5938;47.098;15.474;2023-11-22T03:14:24;-0.20;99.90
11762;DHT22;5938;47.098;15.474;2023-11-22T03:18:27;-0.50;99.90
11762;DHT22;5938;47.098;15.474;2023-11-22T03:22:30;-0.40;99.90
11762;DHT22;5938;47.098;15.474;2023-11-22T03:26:35;-0.40;99.90
11762;DHT22;5938;47.098;15.474;2023-11-22T03:30:40;-0.40;99.90
11762;DHT22;5938;47.098;15.474;2023-11-22T03:34:43;-0.50;99.90
11762;DHT22;5938;47.098;15.474;2023-11-22T03:38:47;-0.70;99.90
11762;DHT22;5938;47.098;15.474;2023-11-22T03:42:50;-0.50;99.90
11762;DHT22;5938;47.098;15.474;2023-11-22T03:46:55;-0.60;99.90
11762;DHT22;5938;47.098;15.474;2023-11-22T03:51:00;-0.50;99.90
11762;DHT22;5938;47.098;15.474;2023-11-22T03:55:05;-0.60;99.90
11762;DHT22;5938;47.098;15.474;2023-11-22T03:59:08;-0.70;99.90
11762;DHT22;5938;47.098;15.474;2023-11-22T04:03:13;-0.70;99.90
11762;DHT22;5938;47.098;15.474;2023-11-22T04:07:17;-0.60;99.90
11762;DHT22;5938;47.098;15.474;2023-11-22T04:11:21;-0.70;99.90
11762;DHT22;5938;47.098;15.474;2023-11-22T04:15:24;-0.50;99.90
11762;DHT22;5938;47.098;15.474;2023-11-22T04:19:30;-0.60;99.90
11762;DHT22;5938;47.098;15.474;2023-11-22T04:23:34;-0.90;99.90
11762;DHT22;5938;47.098;15.474;2023-11-22T04:27:38;-0.90;99.90
11762;DHT22;5938;47.098;15.474;2023-11-22T04:31:42;-0.70;99.90
11762;DHT22;5938;47.098;15.474;2023-11-22T04:35:47;-0.80;99.90
11762;DHT22;5938;47.098;15.474;2023-11-22T04:39:50;-0.90;99.90
11762;DHT22;5938;47.098;15.474;2023-11-22T04:43:54;-0.80;99.90
11762;DHT22;5938;47.098;15.474;2023-11-22T04:47:57;-0.90;99.90
11762;DHT22;5938;47.098;15.474;2023-11-22T04:52:03;-1.00;99.90
11762;DHT22;5938;47.098;15.474;2023-11-22T04:56:06;-0.80;99.90
11762;DHT22;5938;47.098;15.474;2023-11-22T05:00:11;-0.80;99.90
11762;DHT22;5938;47.098;15.474;2023-11-22T05:04:14;-0.70;99.90
11762;DHT22;5938;47.098;15.474;2023-11-22T05:08:19;-0.70;99.90
11762;DHT22;5938;47.098;15.474;2023-11-22T05:12:23;-0.80;99.90
11762;DHT22;5938;47.098;15.474;2023-11-22T05:16:26;-0.80;99.90
11762;DHT22;5938;47.098;15.474;2023-11-22T05:20:29;-0.90;99.90
11762;DHT22;5938;47.098;15.474;2023-11-22T05:24:36;-0.70;99.90
11762;DHT22;5938;47.098;15.474;2023-11-22T05:28:42;-0.90;99.90
11762;DHT22;5938;47.098;15.474;2023-11-22T05:32:46;-1.00;99.90
11762;DHT22;5938;47.098;15.474;2023-11-22T05:36:49;-1.00;99.90
11762;DHT22;5938;47.098;15.474;2023-11-22T05:40:54;-1.00;99.90
11762;DHT22;5938;47.098;15.474;2023-11-22T05:44:57;-1.00;99.90
11762;DHT22;5938;47.098;15.474;2023-11-22T05:49:01;-0.80;99.90
11762;DHT22;5938;47.098;15.474;2023-11-22T05:53:04;-1.00;99.90
11762;DHT22;5938;47.098;15.474;2023-11-22T05:57:09;-0.90;99.90
11762;DHT22;5938;47.098;15.474;2023-11-22T06:01:12;-1.00;99.90
11762;DHT22;5938;47.098;15.474;2023-11-22T06:05:16;-0.70;99.90
11762;DHT22;5938;47.098;15.474;2023-11-22T06:09:20;-0.80;99.90
11762;DHT22;5938;47.098;15.474;2023-11-22T06:13:26;-0.70;99.90
11762;DHT22;5938;47.098;15.474;2023-11-22T06:17:30;-1.30;99.90
11762;DHT22;5938;47.098;15.474;2023-11-22T06:21:35;-0.70;99.90
11762;DHT22;5938;47.098;15.474;2023-11-22T06:25:40;-0.80;99.90
11762;DHT22;5938;47.098;15.474;2023-11-22T06:29:46;-0.80;99.90
11762;DHT22;5938;47.098;15.474;2023-11-22T06:33:49;-0.80;99.90
11762;DHT22;5938;47.098;15.474;2023-11-22T06:37:54;-0.80;99.90
11762;DHT22;5938;47.098;15.474;2023-11-22T06:41:57;-0.80;99.90
11762;DHT22;5938;47.098;15.474;2023-11-22T06:46:02;-0.90;99.90
11762;DHT22;5938;47.098;15.474;2023-11-22T06:50:08;-0.90;99.90
11762;DHT22;5938;47.098;15.474;2023-11-22T06:54:12;-0.90;99.90
11762;DHT22;5938;47.098;15.474;2023-11-22T06:58:16;-0.90;99.90
11762;DHT22;5938;47.098;15.474;2023-11-22T07:02:21;-0.80;99.90
11762;DHT22;5938;47.098;15.474;2023-11-22T07:06:25;-0.70;99.90
11762;DHT22;5938;47.098;15.474;2023-11-22T07:10:28;-0.70;99.90
11762;DHT22;5938;47.098;15.474;2023-11-22T07:14:36;-0.70;99.90
11762;DHT22;5938;47.098;15.474;2023-11-22T07:18:41;-0.60;99.90
11762;DHT22;5938;47.098;15.474;2023-11-22T07:22:44;-0.40;99.90
11762;DHT22;5938;47.098;15.474;2023-11-22T07:26:47;-0.30;99.90
11762;DHT22;5938;47.098;15.474;2023-11-22T07:30:51;-0.50;99.90
11762;DHT22;5938;47.098;15.474;2023-11-22T07:34:56;-0.20;99.90
11762;DHT22;5938;47.098;15.474;2023-11-22T07:38:59;-0.40;99.90
11762;DHT22;5938;47.098;15.474;2023-11-22T07:43:04;-0.30;99.90
11762;DHT22;5938;47.098;15.474;2023-11-22T07:47:09;-0.20;99.90
11762;DHT22;5938;47.098;15.474;2023-11-22T07:51:15;-0.20;99.90
11762;DHT22;5938;47.098;15.474;2023-11-22T07:55:19;0.00;99.90
11762;DHT22;5938;47.098;15.474;2023-11-22T07:59:23;0.00;99.90
11762;DHT22;5938;47.098;15.474;2023-11-22T08:03:27;0.10;99.90
11762;DHT22;5938;47.098;15.474;2023-11-22T08:07:33;0.20;99.90
11762;DHT22;5938;47.098;15.474;2023-11-22T08:11:37;0.30;99.90
11762;DHT22;5938;47.098;15.474;2023-11-22T08:15:40;0.70;99.90
11762;DHT22;5938;47.098;15.474;2023-11-22T08:19:44;0.80;99.90
11762;DHT22;5938;47.098;15.474;2023-11-22T08:23:51;0.60;99.90
11762;DHT22;5938;47.098;15.474;2023-11-22T08:27:55;0.80;99.90
11762;DHT22;5938;47.098;15.474;2023-11-22T08:31:58;0.80;99.90
11762;DHT22;5938;47.098;15.474;2023-11-22T08:36:03;0.80;99.90
11762;DHT22;5938;47.098;15.474;2023-11-22T08:40:10;1.00;99.90
11762;DHT22;5938;47.098;15.474;2023-11-22T08:44:16;1.10;99.90
11762;DHT22;5938;47.098;15.474;2023-11-22T08:48:22;1.60;99.90
11762;DHT22;5938;47.098;15.474;2023-11-22T08:52:26;1.80;99.90
11762;DHT22;5938;47.098;15.474;2023-11-22T08:56:31;2.00;99.90
11762;DHT22;5938;47.098;15.474;2023-11-22T09:00:34;2.30;99.90
11762;DHT22;5938;47.098;15.474;2023-11-22T09:04:39;2.40;99.90
11762;DHT22;5938;47.098;15.474;2023-11-22T09:08:43;2.50;99.90
11762;DHT22;5938;47.098;15.474;2023-11-22T09:12:49;2.50;99.90
11762;DHT22;5938;47.098;15.474;2023-11-22T09:16:53;2.80;99.90
11762;DHT22;5938;47.098;15.474;2023-11-22T09:20:57;3.20;99.90
11762;DHT22;5938;47.098;15.474;2023-11-22T09:25:00;3.50;99.90
11762;DHT22;5938;47.098;15.474;2023-11-22T09:29:06;4.00;99.90
11762;DHT22;5938;47.098;15.474;2023-11-22T09:33:11;4.20;99.90
11762;DHT22;5938;47.098;15.474;2023-11-22T09:37:16;4.60;99.90
11762;DHT22;5938;47.098;15.474;2023-11-22T09:41:20;5.60;99.90
11762;DHT22;5938;47.098;15.474;2023-11-22T09:45:25;7.50;99.90
11762;DHT22;5938;47.098;15.474;2023-11-22T09:49:30;8.00;99.90
11762;DHT22;5938;47.098;15.474;2023-11-22T09:53:40;8.20;99.90
11762;DHT22;5938;47.098;15.474;2023-11-22T09:57:47;8.00;99.90
11762;DHT22;5938;47.098;15.474;2023-11-22T10:01:54;9.30;99.90
11762;DHT22;5938;47.098;15.474;2023-11-22T10:05:58;10.70;99.90
11762;DHT22;5938;47.098;15.474;2023-11-22T10:10:01;11.10;99.90
11762;DHT22;5938;47.098;15.474;2023-11-22T10:14:07;9.90;99.90
11762;DHT22;5938;47.098;15.474;2023-11-22T10:18:12;9.20;99.90
11762;DHT22;5938;47.098;15.474;2023-11-22T10:22:16;9.50;99.90
11762;DHT22;5938;47.098;15.474;2023-11-22T10:26:20;10.20;99.90
11762;DHT22;5938;47.098;15.474;2023-11-22T10:30:25;11.30;99.90
11762;DHT22;5938;47.098;15.474;2023-11-22T10:34:32;12.10;99.90
11762;DHT22;5938;47.098;15.474;2023-11-22T10:38:36;11.80;99.90
11762;DHT22;5938;47.098;15.474;2023-11-22T10:43:16;12.60;99.90
11762;DHT22;5938;47.098;15.474;2023-11-22T10:57:55;16.10;93.00
11762;DHT22;5938;47.098;15.474;2023-11-22T11:02:03;18.40;89.00
11762;DHT22;5938;47.098;15.474;2023-11-22T11:06:11;19.20;83.90
11762;DHT22;5938;47.098;15.474;2023-11-22T11:10:19;18.70;80.40
11762;DHT22;5938;47.098;15.474;2023-11-22T11:14:28;19.60;77.60
11762;DHT22;5938;47.098;15.474;2023-11-22T11:18:32;19.60;77.30
11762;DHT22;5938;47.098;15.474;2023-11-22T11:22:36;20.00;76.70
11762;DHT22;5938;47.098;15.474;2023-11-22T11:26:40;20.50;72.90
11762;DHT22;5938;47.098;15.474;2023-11-22T11:30:46;20.90;71.90
11762;DHT22;5938;47.098;15.474;2023-11-22T11:34:50;20.30;71.30
11762;DHT22;5938;47.098;15.474;2023-11-22T11:38:55;18.60;75.00
11762;DHT22;5938;47.098;15.474;2023-11-22T11:42:59;15.60;81.50
11762;DHT22;5938;47.098;15.474;2023-11-22T11:47:10;13.00;87.50
11762;DHT22;5938;47.098;15.474;2023-11-22T11:51:15;11.60;91.70
11762;DHT22;5938;47.098;15.474;2023-11-22T11:55:18;10.40;93.40
11762;DHT22;5938;47.098;15.474;2023-11-22T11:59:22;9.70;96.10
11762;DHT22;5938;47.098;15.474;2023-11-22T12:03:27;9.50;96.80
11762;DHT22;5938;47.098;15.474;2023-11-22T12:07:31;9.20;97.60
11762;DHT22;5938;47.098;15.474;2023-11-22T12:11:34;9.20;98.90
11762;DHT22;5938;47.098;15.474;2023-11-22T12:15:39;11.10;95.90
11762;DHT22;5938;47.098;15.474;2023-11-22T12:19:46;14.30;91.00
11762;DHT22;5938;47.098;15.474;2023-11-22T12:23:50;16.70;85.50
11762;DHT22;5938;47.098;15.474;2023-11-22T12:27:55;20.00;79.30
11762;DHT22;5938;47.098;15.474;2023-11-22T12:31:58;21.20;72.50
11762;DHT22;5938;47.098;15.474;2023-11-22T12:36:04;22.50;71.50
11762;DHT22;5938;47.098;15.474;2023-11-22T12:40:13;23.20;67.90
11762;DHT22;5938;47.098;15.474;2023-11-22T12:44:19;23.50;65.10
11762;DHT22;5938;47.098;15.474;2023-11-22T12:48:24;23.70;63.50
11762;DHT22;5938;47.098;15.474;2023-11-22T12:52:31;22.60;66.10
11762;DHT22;5938;47.098;15.474;2023-11-22T12:56:35;23.40;65.00
11762;DHT22;5938;47.098;15.474;2023-11-22T13:00:38;24.00;62.90
11762;DHT22;5938;47.098;15.474;2023-11-22T13:04:42;23.80;63.60
11762;DHT22;5938;47.098;15.474;2023-11-22T13:08:47;21.80;67.20
11762;DHT22;5938;47.098;15.474;2023-11-22T13:12:51;18.40;73.20
11762;DHT22;5938;47.098;15.474;2023-11-22T13:16:54;15.30;78.00
11762;DHT22;5938;47.098;15.474;2023-11-22T13:20:58;12.90;85.20
11762;DHT22;5938;47.098;15.474;2023-11-22T13:25:03;11.30;90.00
11762;DHT22;5938;47.098;15.474;2023-11-22T13:29:08;10.30;91.70
11762;DHT22;5938;47.098;15.474;2023-11-22T13:33:11;9.60;94.50
11762;DHT22;5938;47.098;15.474;2023-11-22T13:37:15;9.10;95.50
11762;DHT22;5938;47.098;15.474;2023-11-22T13:41:20;8.70;96.90
11762;DHT22;5938;47.098;15.474;2023-11-22T13:45:24;8.40;97.30
11762;DHT22;5938;47.098;15.474;2023-11-22T13:49:27;8.20;97.30
11762;DHT22;5938;47.098;15.474;2023-11-22T13:53:31;8.10;97.70
11762;DHT22;5938;47.098;15.474;2023-11-22T13:57:38;7.90;97.90
11762;DHT22;5938;47.098;15.474;2023-11-22T14:01:41;7.70;99.10
11762;DHT22;5938;47.098;15.474;2023-11-22T14:05:46;7.70;99.50
11762;DHT22;5938;47.098;15.474;2023-11-22T14:09:50;7.30;99.90
11762;DHT22;5938;47.098;15.474;2023-11-22T14:13:54;7.20;99.90
11762;DHT22;5938;47.098;15.474;2023-11-22T14:17:58;7.20;99.70
11762;DHT22;5938;47.098;15.474;2023-11-22T14:22:02;7.10;99.90
11762;DHT22;5938;47.098;15.474;2023-11-22T14:26:05;7.50;99.10
11762;DHT22;5938;47.098;15.474;2023-11-22T14:30:11;7.30;99.90
11762;DHT22;5938;47.098;15.474;2023-11-22T14:34:17;7.30;99.90
11762;DHT22;5938;47.098;15.474;2023-11-22T14:38:20;6.90;99.90
11762;DHT22;5938;47.098;15.474;2023-11-22T14:42:25;6.80;99.90
11762;DHT22;5938;47.098;15.474;2023-11-22T14:46:31;6.50;99.90
11762;DHT22;5938;47.098;15.474;2023-11-22T14:50:34;6.20;99.90
11762;DHT22;5938;47.098;15.474;2023-11-22T14:54:38;6.00;99.90
11762;DHT22;5938;47.098;15.474;2023-11-22T14:58:41;5.70;99.90
11762;DHT22;5938;47.098;15.474;2023-11-22T15:02:46;5.50;99.90
11762;DHT22;5938;47.098;15.474;2023-11-22T15:06:55;5.10;99.90
11762;DHT22;5938;47.098;15.474;2023-11-22T15:10:59;4.90;99.90
11762;DHT22;5938;47.098;15.474;2023-11-22T15:15:03;4.80;99.90
11762;DHT22;5938;47.098;15.474;2023-11-22T15:19:07;4.70;99.90
11762;DHT22;5938;47.098;15.474;2023-11-22T15:23:12;4.40;99.90
11762;DHT22;5938;47.098;15.474;2023-11-22T15:27:17;4.30;99.90
11762;DHT22;5938;47.098;15.474;2023-11-22T15:31:21;4.20;99.90
11762;DHT22;5938;47.098;15.474;2023-11-22T15:35:26;4.00;99.90
11762;DHT22;5938;47.098;15.474;2023-11-22T15:39:30;3.80;99.90
11762;DHT22;5938;47.098;15.474;2023-11-22T15:43:33;3.70;99.90
11762;DHT22;5938;47.098;15.474;2023-11-22T15:47:37;3.40;99.90
11762;DHT22;5938;47.098;15.474;2023-11-22T15:51:45;3.30;99.90
11762;DHT22;5938;47.098;15.474;2023-11-22T15:55:48;3.10;99.90
11762;DHT22;5938;47.098;15.474;2023-11-22T15:59:51;3.00;99.90
11762;DHT22;5938;47.098;15.474;2023-11-22T16:03:55;3.00;99.90
11762;DHT22;5938;47.098;15.474;2023-11-22T16:08:00;2.90;99.90
11762;DHT22;5938;47.098;15.474;2023-11-22T16:12:04;2.70;99.90
11762;DHT22;5938;47.098;15.474;2023-11-22T16:16:07;2.60;99.90
11762;DHT22;5938;47.098;15.474;2023-11-22T16:20:12;2.40;99.90
11762;DHT22;5938;47.098;15.474;2023-11-22T16:24:18;2.40;99.90
11762;DHT22;5938;47.098;15.474;2023-11-22T16:28:21;2.30;99.90
11762;DHT22;5938;47.098;15.474;2023-11-22T16:32:24;2.10;99.90
11762;DHT22;5938;47.098;15.474;2023-11-22T16:36:28;2.10;99.90
11762;DHT22;5938;47.098;15.474;2023-11-22T16:40:33;2.00;99.90
11762;DHT22;5938;47.098;15.474;2023-11-22T16:44:37;1.90;99.90
11762;DHT22;5938;47.098;15.474;2023-11-22T16:48:45;1.70;99.90
11762;DHT22;5938;47.098;15.474;2023-11-22T16:52:49;1.50;99.90
11762;DHT22;5938;47.098;15.474;2023-11-22T16:56:54;1.60;99.90
11762;DHT22;5938;47.098;15.474;2023-11-22T17:00:58;1.40;99.90
11762;DHT22;5938;47.098;15.474;2023-11-22T17:05:02;1.40;99.90
11762;DHT22;5938;47.098;15.474;2023-11-22T17:09:06;1.20;99.90
11762;DHT22;5938;47.098;15.474;2023-11-22T17:13:11;1.10;99.90
11762;DHT22;5938;47.098;15.474;2023-11-22T17:17:16;1.10;99.90
11762;DHT22;5938;47.098;15.474;2023-11-22T17:21:21;1.10;99.90
11762;DHT22;5938;47.098;15.474;2023-11-22T17:25:28;1.00;99.90
11762;DHT22;5938;47.098;15.474;2023-11-22T17:29:33;0.90;99.90
11762;DHT22;5938;47.098;15.474;2023-11-22T17:33:37;0.90;99.90
11762;DHT22;5938;47.098;15.474;2023-11-22T17:37:41;0.90;99.90
11762;DHT22;5938;47.098;15.474;2023-11-22T17:41:45;0.70;99.90
11762;DHT22;5938;47.098;15.474;2023-11-22T17:45:50;0.70;99.90
11762;DHT22;5938;47.098;15.474;2023-11-22T17:49:54;0.60;99.90
11762;DHT22;5938;47.098;15.474;2023-11-22T17:54:00;0.50;99.90
11762;DHT22;5938;47.098;15.474;2023-11-22T17:58:04;0.50;99.90
11762;DHT22;5938;47.098;15.474;2023-11-22T18:02:09;0.40;99.90
11762;DHT22;5938;47.098;15.474;2023-11-22T18:06:13;0.40;99.90
11762;DHT22;5938;47.098;15.474;2023-11-22T18:10:18;0.30;99.90
11762;DHT22;5938;47.098;15.474;2023-11-22T18:14:22;0.20;99.90
11762;DHT22;5938;47.098;15.474;2023-11-22T18:18:27;0.20;99.90
11762;DHT22;5938;47.098;15.474;2023-11-22T18:22:31;0.20;99.90
11762;DHT22;5938;47.098;15.474;2023-11-22T18:26:35;0.20;99.90
11762;DHT22;5938;47.098;15.474;2023-11-22T18:30:40;0.20;99.90
11762;DHT22;5938;47.098;15.474;2023-11-22T18:34:45;-0.10;99.90
11762;DHT22;5938;47.098;15.474;2023-11-22T18:38:48;-0.10;99.90
11762;DHT22;5938;47.098;15.474;2023-11-22T18:42:53;0.00;99.90
11762;DHT22;5938;47.098;15.474;2023-11-22T18:46:58;-0.20;99.90
11762;DHT22;5938;47.098;15.474;2023-11-22T18:51:04;0.00;99.90
11762;DHT22;5938;47.098;15.474;2023-11-22T18:55:08;-0.30;99.90
11762;DHT22;5938;47.098;15.474;2023-11-22T18:59:13;-0.50;99.90
11762;DHT22;5938;47.098;15.474;2023-11-22T19:03:17;-0.30;99.90
11762;DHT22;5938;47.098;15.474;2023-11-22T19:07:22;-0.80;99.90
11762;DHT22;5938;47.098;15.474;2023-11-22T19:11:26;-0.90;99.90
11762;DHT22;5938;47.098;15.474;2023-11-22T19:15:41;-0.40;99.90
11762;DHT22;5938;47.098;15.474;2023-11-22T19:19:46;-0.30;99.90
11762;DHT22;5938;47.098;15.474;2023-11-22T19:23:51;-0.40;99.90
11762;DHT22;5938;47.098;15.474;2023-11-22T19:27:56;-0.30;99.90
11762;DHT22;5938;47.098;15.474;2023-11-22T19:32:02;-0.30;99.90
11762;DHT22;5938;47.098;15.474;2023-11-22T19:36:06;-0.20;99.90
11762;DHT22;5938;47.098;15.474;2023-11-22T19:40:12;0.00;99.90
11762;DHT22;5938;47.098;15.474;2023-11-22T19:44:16;0.30;99.90
11762;DHT22;5938;47.098;15.474;2023-11-22T19:48:22;0.10;99.90
11762;DHT22;5938;47.098;15.474;2023-11-22T19:52:27;0.20;99.90
11762;DHT22;5938;47.098;15.474;2023-11-22T19:56:34;0.20;99.90
11762;DHT22;5938;47.098;15.474;2023-11-22T20:00:38;0.20;99.90
11762;DHT22;5938;47.098;15.474;2023-11-22T20:04:47;0.30;99.90
11762;DHT22;5938;47.098;15.474;2023-11-22T20:08:52;0.30;99.90
11762;DHT22;5938;47.098;15.474;2023-11-22T20:13:02;0.10;99.90
11762;DHT22;5938;47.098;15.474;2023-11-22T20:17:06;0.30;99.90
11762;DHT22;5938;47.098;15.474;2023-11-22T20:21:13;0.00;99.90
11762;DHT22;5938;47.098;15.474;2023-11-22T20:25:17;0.00;99.90
11762;DHT22;5938;47.098;15.474;2023-11-22T20:29:23;-0.10;99.90
11762;DHT22;5938;47.098;15.474;2023-11-22T20:33:28;-0.20;99.90
11762;DHT22;5938;47.098;15.474;2023-11-22T20:37:32;-0.40;99.90
11762;DHT22;5938;47.098;15.474;2023-11-22T20:41:37;-0.30;99.90
11762;DHT22;5938;47.098;15.474;2023-11-22T20:45:42;-0.30;99.90
11762;DHT22;5938;47.098;15.474;2023-11-22T20:49:46;-0.60;99.90
11762;DHT22;5938;47.098;15.474;2023-11-22T20:53:50;-1.00;99.90
11762;DHT22;5938;47.098;15.474;2023-11-22T20:57:55;-0.50;99.90
11762;DHT22;5938;47.098;15.474;2023-11-22T21:02:04;-0.60;99.90
11762;DHT22;5938;47.098;15.474;2023-11-22T21:06:11;-0.70;99.90
11762;DHT22;5938;47.098;15.474;2023-11-22T21:10:19;-0.70;99.90
11762;DHT22;5938;47.098;15.474;2023-11-22T21:14:23;-0.80;99.90
11762;DHT22;5938;47.098;15.474;2023-11-22T21:18:28;-0.50;99.90
11762;DHT22;5938;47.098;15.474;2023-11-22T21:22:32;-0.40;99.90
11762;DHT22;5938;47.098;15.474;2023-11-22T21:26:36;-0.20;99.90
11762;DHT22;5938;47.098;15.474;2023-11-22T21:30:40;0.10;99.90
11762;DHT22;5938;47.098;15.474;2023-11-22T21:34:45;0.10;99.90
11762;DHT22;5938;47.098;15.474;2023-11-22T21:38:49;0.20;99.90
11762;DHT22;5938;47.098;15.474;2023-11-22T21:42:53;0.30;99.90
11762;DHT22;5938;47.098;15.474;2023-11-22T21:46:56;0.10;99.90
11762;DHT22;5938;47.098;15.474;2023-11-22T21:51:01;0.10;99.90
11762;DHT22;5938;47.098;15.474;2023-11-22T21:55:06;0.50;99.90
11762;DHT22;5938;47.098;15.474;2023-11-22T21:59:11;0.60;99.90
11762;DHT22;5938;47.098;15.474;2023-11-22T22:03:14;0.70;99.90
11762;DHT22;5938;47.098;15.474;2023-11-22T22:07:19;0.70;99.90
11762;DHT22;5938;47.098;15.474;2023-11-22T22:11:23;0.70;99.90
11762;DHT22;5938;47.098;15.474;2023-11-22T22:15:26;0.80;99.90
11762;DHT22;5938;47.098;15.474;2023-11-22T22:19:30;0.70;99.90
11762;DHT22;5938;47.098;15.474;2023-11-22T22:23:34;0.70;99.90
11762;DHT22;5938;47.098;15.474;2023-11-22T22:27:38;0.90;99.90
11762;DHT22;5938;47.098;15.474;2023-11-22T22:31:41;0.80;99.90
11762;DHT22;5938;47.098;15.474;2023-11-22T22:35:45;0.50;99.90
11762;DHT22;5938;47.098;15.474;2023-11-22T22:39:50;0.90;99.90
11762;DHT22;5938;47.098;15.474;2023-11-22T22:43:54;0.90;99.90
11762;DHT22;5938;47.098;15.474;2023-11-22T22:47:57;0.90;99.90
11762;DHT22;5938;47.098;15.474;2023-11-22T22:52:01;0.90;99.90
11762;DHT22;5938;47.098;15.474;2023-11-22T22:56:17;1.00;99.90
11762;DHT22;5938;47.098;15.474;2023-11-22T23:00:21;1.00;99.90
11762;DHT22;5938;47.098;15.474;2023-11-22T23:04:30;1.10;99.90
11762;DHT22;5938;47.098;15.474;2023-11-22T23:08:36;1.10;99.90
11762;DHT22;5938;47.098;15.474;2023-11-22T23:12:41;1.10;99.90
11762;DHT22;5938;47.098;15.474;2023-11-22T23:16:44;1.20;99.90
11762;DHT22;5938;47.098;15.474;2023-11-22T23:20:48;1.20;99.90
11762;DHT22;5938;47.098;15.474;2023-11-22T23:24:51;1.30;99.90
11762;DHT22;5938;47.098;15.474;2023-11-22T23:28:56;1.40;99.90
11762;DHT22;5938;47.098;15.474;2023-11-22T23:32:59;1.40;99.90
11762;DHT22;5938;47.098;15.474;2023-11-22T23:37:03;1.40;99.90
11762;DHT22;5938;47.098;15.474;2023-11-22T23:41:06;1.40;99.90
11762;DHT22;5938;47.098;15.474;2023-11-22T23:45:12;1.40;99.90
11762;DHT22;5938;47.098;15.474;2023-11-22T23:49:16;1.50;99.90
11762;DHT22;5938;47.098;15.474;2023-11-22T23:53:19;1.40;99.90
11762;DHT22;5938;47.098;15.474;2023-11-22T23:57:23;1.50;99.90
